トロント/ピアソン の空港の天気 - METARとTAF

トロント・ピアソン国際空港 ( CYYZ / YYZ ) - カナダ オンタリオ州トロント
飛行場実況気象(Metar)
観測時間05/20 18:00 EDT (05/20 22:00 UTC)
風向・風速西北西 10m/s 瞬間風速14m/s
視程10km以上
天気現象
全天の8割程度の雲 雲底高度 980m
気温12℃
湿度62%
気圧1012.7hPa
METARCYYZ 202200Z 29019G27KT 15SM BKN032 12/05 A2990 RMK SC7 SLP127
過去の天気等 Google飛行場航空写真 Wunderground天気予報

過去48時間のMETAR

飛行場予報(TAF)
発表時間: 5/20 16:38 EDT (5/20 20:38 UTC)
予報対象時間: 20日17時 EDT ~ 21日20時 EDT
風向・風速西北西 9m/s 瞬間風速 14m/s
視程10km以上
全天の4割程度の雲 雲底高度 610m
全天の8割程度の雲 雲底高度 1220m
20日17時 EDT ~ 20日23時 EDT に一時的に
全天の8割程度の雲 雲底高度 610m
20日17時 EDT ~ 20日19時 EDT に徐々に
風向・風速西北西 6m/s 瞬間風速 11m/s
20日23時 EDT から
風向・風速北西 6m/s
視程10km以上
全天の8割程度の雲 雲底高度 910m
21日2時 EDT から
風向・風速北西 6m/s
視程10km以上
少しの雲 雲底高度 910m
21日8時 EDT ~ 21日10時 EDT に徐々に
風向・風速北北西 6m/s 瞬間風速 11m/s
21日13時 EDT ~ 21日15時 EDT に徐々に
風向・風速北北西 6m/s
TAF CYYZ 202038Z 2021/2124 29018G28KT P6SM SCT020 BKN040
TEMPO 2021/2103 BKN020
BECMG 2021/2023 30012G22KT
FM210300 31012KT P6SM BKN030
FM210600 31012KT P6SM FEW030
BECMG 2112/2114 34012G22KT
BECMG 2117/2119 34012KT RMK NXT FCST BY 210000Z